Time;durP1;ratioP1;P1;durP2;ratioP2;P2;SDS_P1;SDS_P2;PMS_P1;PMS_P2;Temp;Humidity;BMP_temperature;BMP_pressure;BME280_temperature;BME280_humidity;BME280_pressure;Samples;Min_cycle;Max_cycle;Signal;HPM_P1;HPM_P2
2022/11/26 00:00:39;;;;;;;3.10;0.82;;;15.70;1.00;;;;;;4823393;29;20125;-58
2022/11/26 00:03:11;;;;;;;6.57;1.00;;;15.70;1.00;;;;;;4823141;29;20535;-58
2022/11/26 00:05:40;;;;;;;7.25;1.65;;;15.70;1.00;;;;;;4823326;29;20042;-58
2022/11/26 00:08:21;;;;;;;7.10;2.10;;;15.70;1.00;;;;;;4823233;29;20399;-58
2022/11/26 00:10:51;;;;;;;5.65;1.33;;;15.70;1.00;;;;;;4823279;29;20050;-58
2022/11/26 00:13:20;;;;;;;3.83;1.08;;;15.60;1.00;;;;;;4823164;29;20476;-58
2022/11/26 00:15:48;;;;;;;5.20;0.82;;;15.70;1.00;;;;;;4823189;29;20144;-58
2022/11/26 00:18:16;;;;;;;4.85;0.90;;;15.70;1.00;;;;;;4823020;29;20058;-57
2022/11/26 00:20:44;;;;;;;3.85;0.73;;;15.70;1.00;;;;;;4823182;29;20045;-58
2022/11/26 00:23:23;;;;;;;5.28;1.55;;;15.70;1.00;;;;;;4822811;29;20058;-58
2022/11/26 00:25:55;;;;;;;8.13;2.33;;;15.70;1.00;;;;;;4822994;29;20134;-58
2022/11/26 00:28:35;;;;;;;4.05;0.63;;;15.70;1.00;;;;;;4823151;29;20125;-58
2022/11/26 00:31:11;;;;;;;2.72;0.77;;;15.70;1.00;;;;;;4823090;29;20145;-58
2022/11/26 00:33:38;;;;;;;4.93;1.05;;;15.70;1.00;;;;;;4822632;29;20047;-58
2022/11/26 00:36:26;;;;;;;4.80;0.90;;;15.70;1.00;;;;;;4822988;29;20070;-58
2022/11/26 00:38:57;;;;;;;4.60;1.00;;;15.70;1.00;;;;;;4822840;29;20050;-58
2022/11/26 00:41:28;;;;;;;3.95;1.27;;;15.70;1.00;;;;;;4822927;29;20107;-59
2022/11/26 00:43:54;;;;;;;6.78;1.35;;;15.60;1.00;;;;;;4822464;29;20081;-59
2022/11/26 00:46:21;;;;;;;5.07;0.95;;;15.70;1.00;;;;;;4822925;29;20126;-59
2022/11/26 00:48:48;;;;;;;3.35;0.95;;;15.60;1.00;;;;;;4822853;29;20137;-55
2022/11/26 00:51:21;;;;;;;7.07;1.15;;;15.60;1.00;;;;;;4822789;29;20062;-58
2022/11/26 00:53:49;;;;;;;6.13;1.02;;;15.60;1.00;;;;;;4822588;29;20129;-58
2022/11/26 00:56:20;;;;;;;5.55;1.00;;;15.60;1.00;;;;;;4822553;29;20525;-57
2022/11/26 00:58:48;;;;;;;3.05;0.98;;;15.60;1.00;;;;;;4822562;29;20062;-57
2022/11/26 01:01:23;;;;;;;2.70;1.25;;;15.60;1.00;;;;;;4822743;29;20078;-56
2022/11/26 01:03:51;;;;;;;4.07;0.98;;;15.60;1.00;;;;;;4822462;29;20038;-58
2022/11/26 01:06:21;;;;;;;5.88;0.82;;;15.60;1.00;;;;;;4824488;29;20125;-58
2022/11/26 01:08:48;;;;;;;6.53;1.30;;;15.60;1.00;;;;;;4825923;29;20141;-57
2022/11/26 01:11:19;;;;;;;5.13;1.17;;;15.60;1.00;;;;;;4825955;29;20582;-57
2022/11/26 01:13:48;;;;;;;4.68;1.25;;;15.60;1.00;;;;;;4825699;29;20137;-58
2022/11/26 01:16:18;;;;;;;4.13;1.45;;;15.60;1.00;;;;;;4825792;29;20494;-58
2022/11/26 01:18:47;;;;;;;3.75;0.70;;;15.60;1.00;;;;;;4825760;29;20043;-58
2022/11/26 01:21:14;;;;;;;4.85;1.05;;;15.60;1.00;;;;;;4825761;29;20042;-58
2022/11/26 01:23:41;;;;;;;3.72;1.00;;;15.60;1.00;;;;;;4825395;29;20054;-57
2022/11/26 01:26:21;;;;;;;3.13;0.68;;;15.60;1.00;;;;;;4825631;29;20525;-57
2022/11/26 01:28:48;;;;;;;4.40;0.75;;;15.60;1.00;;;;;;4825651;29;20062;-57
2022/11/26 01:31:18;;;;;;;3.70;0.95;;;15.60;1.00;;;;;;4825684;29;20137;-57
2022/11/26 01:33:46;;;;;;;3.83;0.93;;;15.60;1.00;;;;;;4825336;29;20046;-57
2022/11/26 01:36:26;;;;;;;4.43;1.30;;;15.60;1.00;;;;;;4825629;29;20111;-57
2022/11/26 01:39:03;;;;;;;2.88;0.85;;;15.60;1.00;;;;;;4825532;29;20050;-57
2022/11/26 01:42:04;;;;;;;4.50;1.15;;;15.60;1.00;;;;;;4825462;29;20546;-58
2022/11/26 01:44:34;;;;;;;1.83;0.47;;;15.60;1.00;;;;;;4825124;29;20050;-58
2022/11/26 01:47:16;;;;;;;4.45;0.88;;;15.60;1.00;;;;;;4825459;29;20126;-58
2022/11/26 01:50:22;;;;;;;5.00;0.70;;;15.60;1.00;;;;;;4825303;29;20042;-58
2022/11/26 01:52:49;;;;;;;5.00;1.58;;;15.60;1.00;;;;;;4824938;29;20054;-58
2022/11/26 01:55:16;;;;;;;4.93;0.95;;;15.60;1.00;;;;;;4825129;29;20061;-58
2022/11/26 01:57:44;;;;;;;2.03;0.60;;;15.60;1.00;;;;;;4825239;29;20464;-58
2022/11/26 02:00:11;;;;;;;2.95;0.93;;;15.60;1.00;;;;;;4825115;29;20046;-58
2022/11/26 02:02:39;;;;;;;5.43;1.35;;;15.60;1.00;;;;;;4824874;29;20059;-57
2022/11/26 02:05:41;;;;;;;5.30;1.55;;;15.50;1.00;;;;;;4824971;29;20051;-58
2022/11/26 02:08:10;;;;;;;5.00;1.05;;;15.60;1.00;;;;;;4795313;29;20065;-58
2022/11/26 02:10:36;;;;;;;4.18;0.65;;;15.60;1.00;;;;;;4808906;29;20050;-58
2022/11/26 02:13:04;;;;;;;7.18;1.23;;;15.50;1.00;;;;;;4824790;29;20129;-57
2022/11/26 02:15:47;;;;;;;2.28;0.63;;;15.50;1.00;;;;;;4824770;29;20054;-57
2022/11/26 02:18:14;;;;;;;2.33;0.90;;;15.60;1.00;;;;;;4825050;29;20076;-58
2022/11/26 02:21:06;;;;;;;3.35;0.82;;;15.50;1.00;;;;;;4824854;29;20077;-58
2022/11/26 02:23:41;;;;;;;2.28;0.90;;;15.50;1.00;;;;;;4824624;29;20042;-58
2022/11/26 02:26:08;;;;;;;3.55;0.85;;;15.50;1.00;;;;;;4824674;29;20050;-59
2022/11/26 02:29:14;;;;;;;4.60;1.10;;;15.50;1.00;;;;;;4824777;29;20495;-58
2022/11/26 02:32:04;;;;;;;4.80;0.80;;;15.50;1.00;;;;;;4824991;29;20484;-57
2022/11/26 02:34:44;;;;;;;5.40;0.90;;;15.50;1.00;;;;;;4824382;29;20388;-57
2022/11/26 02:37:33;;;;;;;2.95;0.93;;;15.50;1.00;;;;;;4824572;29;20118;-58
2022/11/26 02:39:59;;;;;;;3.40;0.70;;;15.50;1.00;;;;;;4824622;29;20521;-57
2022/11/26 02:42:31;;;;;;;5.20;0.65;;;15.50;1.00;;;;;;4824150;29;20042;-57
2022/11/26 02:45:04;;;;;;;4.65;1.20;;;15.50;1.00;;;;;;4824681;29;20050;-58
2022/11/26 02:47:33;;;;;;;7.95;1.33;;;15.50;1.00;;;;;;4808376;29;20050;-58
2022/11/26 02:50:10;;;;;;;6.65;1.50;;;15.50;1.00;;;;;;4824580;29;20125;-58
2022/11/26 02:52:39;;;;;;;3.17;0.73;;;15.50;1.00;;;;;;4824039;29;20594;-58
2022/11/26 02:55:08;;;;;;;3.10;1.20;;;15.50;1.00;;;;;;4824187;29;20054;-58
2022/11/26 02:57:46;;;;;;;4.25;1.10;;;15.50;1.00;;;;;;4824324;29;20047;-57
2022/11/26 03:00:15;;;;;;;2.70;1.10;;;15.50;1.00;;;;;;4824256;29;20129;-57
2022/11/26 03:03:00;;;;;;;4.10;0.90;;;15.50;1.00;;;;;;4823860;29;20042;-58
2022/11/26 03:05:32;;;;;;;8.15;1.17;;;15.50;1.00;;;;;;4824174;29;20084;-58
2022/11/26 03:07:59;;;;;;;3.92;0.90;;;15.50;1.00;;;;;;4822746;29;20472;-57
2022/11/26 03:10:28;;;;;;;2.38;1.08;;;15.50;1.00;;;;;;4824130;29;20051;-58
2022/11/26 03:12:56;;;;;;;4.35;1.00;;;15.50;1.00;;;;;;4823946;29;20467;-57
2022/11/26 03:15:23;;;;;;;3.65;1.35;;;15.50;1.00;;;;;;4824064;29;20046;-58
2022/11/26 03:17:49;;;;;;;7.15;1.55;;;15.50;1.00;;;;;;4823861;29;20111;-57
2022/11/26 03:20:17;;;;;;;2.78;0.77;;;15.40;1.00;;;;;;4823890;29;20047;-57
2022/11/26 03:22:44;;;;;;;3.10;1.23;;;15.50;1.00;;;;;;4823699;29;20121;-57
2022/11/26 03:25:11;;;;;;;6.93;1.17;;;15.50;1.00;;;;;;4823838;29;20084;-57
2022/11/26 03:27:38;;;;;;;7.28;1.23;;;15.50;1.00;;;;;;4823679;29;20499;-57
2022/11/26 03:30:05;;;;;;;3.58;1.30;;;15.50;1.00;;;;;;4823583;29;20107;-58
2022/11/26 03:32:32;;;;;;;2.70;0.70;;;15.50;1.00;;;;;;4823496;29;20088;-58
2022/11/26 03:34:59;;;;;;;5.10;1.33;;;15.50;1.00;;;;;;4823738;29;20111;-56
2022/11/26 03:37:26;;;;;;;5.85;1.05;;;15.50;1.00;;;;;;4823599;29;20121;-58
2022/11/26 03:39:53;;;;;;;2.53;1.05;;;15.50;1.00;;;;;;4823644;29;20054;-57
2022/11/26 03:42:19;;;;;;;3.38;0.68;;;15.40;1.00;;;;;;4823412;29;20043;-58
2022/11/26 03:44:46;;;;;;;3.08;0.60;;;15.40;1.00;;;;;;4823694;29;20426;-58
2022/11/26 03:47:13;;;;;;;4.40;0.60;;;15.40;1.00;;;;;;4823544;29;20087;-58
2022/11/26 03:49:39;;;;;;;5.32;0.95;;;15.40;1.00;;;;;;4823491;29;20047;-56
2022/11/26 03:52:06;;;;;;;4.97;1.63;;;15.50;1.00;;;;;;4823424;29;20052;-57
2022/11/26 03:54:33;;;;;;;5.13;1.30;;;15.40;1.00;;;;;;4823328;29;20128;-57
2022/11/26 03:57:00;;;;;;;1.98;0.80;;;15.40;1.00;;;;;;4823541;29;20054;-58
2022/11/26 03:59:26;;;;;;;3.05;1.30;;;15.40;1.00;;;;;;4823160;29;20042;-58
2022/11/26 04:01:53;;;;;;;5.80;0.85;;;15.40;1.00;;;;;;4823328;29;20122;-58
2022/11/26 04:04:20;;;;;;;2.15;0.70;;;15.40;1.00;;;;;;4823125;29;20504;-57
2022/11/26 04:06:47;;;;;;;3.38;1.27;;;15.40;1.00;;;;;;4823303;29;20488;-58
2022/11/26 04:09:14;;;;;;;4.10;1.10;;;15.40;1.00;;;;;;4823291;29;20111;-58
2022/11/26 04:11:40;;;;;;;3.03;1.05;;;15.40;1.00;;;;;;4823363;29;20132;-58
2022/11/26 04:14:07;;;;;;;2.88;0.80;;;15.40;1.00;;;;;;4822998;29;20122;-57
2022/11/26 04:16:34;;;;;;;3.13;1.50;;;15.40;1.00;;;;;;4823632;29;20466;-58
2022/11/26 04:19:00;;;;;;;5.63;1.05;;;15.40;1.00;;;;;;4823094;29;20507;-58
2022/11/26 04:21:27;;;;;;;3.00;0.63;;;15.40;1.00;;;;;;4823172;29;20123;-58
2022/11/26 04:23:54;;;;;;;3.00;0.98;;;15.40;1.00;;;;;;4822995;29;20050;-57
2022/11/26 04:26:21;;;;;;;4.53;1.27;;;15.40;1.00;;;;;;4823454;29;20055;-58
2022/11/26 04:28:49;;;;;;;4.68;0.88;;;15.40;1.00;;;;;;4823070;29;20093;-58
2022/11/26 04:31:16;;;;;;;3.17;0.93;;;15.40;1.00;;;;;;4822980;29;20053;-58
2022/11/26 04:33:43;;;;;;;1.80;0.70;;;15.40;1.00;;;;;;4822871;29;20053;-58
2022/11/26 04:36:10;;;;;;;5.45;1.38;;;15.40;1.00;;;;;;4822885;29;20061;-58
2022/11/26 04:38:37;;;;;;;3.45;1.08;;;15.40;1.00;;;;;;4822945;29;20049;-57
2022/11/26 04:41:04;;;;;;;4.22;1.25;;;15.40;1.00;;;;;;4824708;29;20499;-57
2022/11/26 04:43:31;;;;;;;4.80;0.65;;;15.40;1.00;;;;;;4826239;29;20095;-57
2022/11/26 04:45:58;;;;;;;4.90;0.70;;;15.40;1.00;;;;;;4826474;29;20129;-57
2022/11/26 04:48:24;;;;;;;5.05;1.35;;;15.40;1.00;;;;;;4826434;29;20051;-57
2022/11/26 04:50:51;;;;;;;3.17;0.60;;;15.40;1.00;;;;;;4826382;29;20476;-55
2022/11/26 04:53:20;;;;;;;2.08;0.60;;;15.40;1.00;;;;;;4826095;29;20513;-56
2022/11/26 04:55:51;;;;;;;8.10;1.02;;;15.40;1.00;;;;;;4810194;29;20096;-56
2022/11/26 04:58:19;;;;;;;4.05;0.73;;;15.40;1.00;;;;;;4826042;29;20073;-57
2022/11/26 05:00:47;;;;;;;4.63;0.98;;;15.40;1.00;;;;;;4826156;29;20499;-56
2022/11/26 05:03:17;;;;;;;4.78;0.90;;;15.40;1.00;;;;;;4825968;29;20099;-57
2022/11/26 05:05:45;;;;;;;4.07;0.98;;;15.40;1.00;;;;;;4826251;29;20077;-56
2022/11/26 05:08:12;;;;;;;2.00;0.65;;;15.40;1.00;;;;;;4825854;29;20052;-57
2022/11/26 05:10:39;;;;;;;4.03;1.00;;;15.40;1.00;;;;;;4825939;29;20400;-57
2022/11/26 05:13:06;;;;;;;4.93;1.15;;;15.30;1.00;;;;;;4826611;29;20550;-57
2022/11/26 05:15:33;;;;;;;5.82;1.20;;;15.40;1.00;;;;;;4836164;29;20498;-57
2022/11/26 05:17:59;;;;;;;3.00;1.05;;;15.40;1.00;;;;;;4832780;29;20085;-57
2022/11/26 05:20:26;;;;;;;4.50;0.63;;;15.40;1.00;;;;;;4836461;29;20163;-54
2022/11/26 05:22:53;;;;;;;2.72;1.38;;;15.40;1.00;;;;;;4844178;29;20042;-57
2022/11/26 05:25:19;;;;;;;4.78;1.05;;;15.40;1.00;;;;;;4843399;29;20046;-57
2022/11/26 05:27:46;;;;;;;1.92;0.90;;;15.30;1.00;;;;;;4833117;29;20046;-58
2022/11/26 05:30:13;;;;;;;4.28;0.60;;;15.40;1.00;;;;;;4843497;29;20514;-58
2022/11/26 05:32:40;;;;;;;4.75;1.13;;;15.40;1.00;;;;;;4827368;29;20093;-57
2022/11/26 05:35:07;;;;;;;3.08;0.68;;;15.40;1.00;;;;;;4843958;29;20502;-57
2022/11/26 05:37:34;;;;;;;5.97;1.55;;;15.40;1.00;;;;;;4836868;29;20050;-57
2022/11/26 05:40:01;;;;;;;4.70;0.95;;;15.40;1.00;;;;;;4841673;29;20042;-57
2022/11/26 05:42:27;;;;;;;5.03;1.17;;;15.40;1.00;;;;;;4834715;29;20048;-57
2022/11/26 05:44:54;;;;;;;2.97;0.80;;;15.40;1.00;;;;;;4840866;29;20130;-57
2022/11/26 05:47:21;;;;;;;4.43;0.70;;;15.30;1.00;;;;;;4827572;29;20052;-57
2022/11/26 05:49:47;;;;;;;4.80;0.50;;;15.40;1.00;;;;;;4843768;29;20124;-57
2022/11/26 05:52:14;;;;;;;3.85;0.63;;;15.40;1.00;;;;;;4843076;29;20054;-57
2022/11/26 05:54:41;;;;;;;3.78;0.85;;;15.30;1.00;;;;;;4843588;29;20420;-57
2022/11/26 05:57:09;;;;;;;3.22;0.70;;;15.40;1.00;;;;;;4843469;29;20110;-57
2022/11/26 05:59:36;;;;;;;3.10;0.70;;;15.40;1.00;;;;;;4843374;29;20053;-57
2022/11/26 06:02:03;;;;;;;6.05;1.05;;;15.30;1.00;;;;;;4843389;29;20049;-57
2022/11/26 06:04:30;;;;;;;3.63;1.00;;;15.30;1.00;;;;;;4843159;29;20046;-56
2022/11/26 06:06:57;;;;;;;3.85;0.80;;;15.30;1.00;;;;;;4843468;29;20057;-57
2022/11/26 06:09:24;;;;;;;3.13;0.65;;;15.30;1.00;;;;;;4843257;29;20054;-55
2022/11/26 06:11:50;;;;;;;5.03;1.00;;;15.30;1.00;;;;;;4843532;29;20395;-57
2022/11/26 06:14:17;;;;;;;4.43;1.02;;;15.30;1.00;;;;;;4843149;29;20133;-57
2022/11/26 06:16:44;;;;;;;5.47;0.90;;;15.30;1.00;;;;;;4843413;29;20092;-56
2022/11/26 06:19:11;;;;;;;2.58;0.95;;;15.30;1.00;;;;;;4842994;29;20050;-56
2022/11/26 06:21:38;;;;;;;3.72;0.73;;;15.30;1.00;;;;;;4843199;29;20098;-56
2022/11/26 06:24:05;;;;;;;3.60;0.70;;;15.30;1.00;;;;;;4842851;29;20053;-57
2022/11/26 06:26:31;;;;;;;3.67;0.65;;;15.30;1.00;;;;;;4843076;29;20042;-56
2022/11/26 06:28:58;;;;;;;4.95;1.40;;;15.30;1.00;;;;;;4842996;29;20136;-56
2022/11/26 06:31:25;;;;;;;4.10;1.17;;;15.30;1.00;;;;;;4843214;29;20053;-57
2022/11/26 06:33:54;;;;;;;2.53;1.02;;;15.30;1.00;;;;;;4842683;29;20132;-57
2022/11/26 06:36:21;;;;;;;6.82;1.30;;;15.30;1.00;;;;;;4842933;29;20054;-57
2022/11/26 06:38:48;;;;;;;5.53;0.85;;;15.30;1.00;;;;;;4842699;29;20050;-57
2022/11/26 06:41:15;;;;;;;3.80;0.90;;;15.30;1.00;;;;;;4843017;29;20054;-56
2022/11/26 06:43:41;;;;;;;4.57;0.82;;;15.30;1.00;;;;;;4842476;29;20082;-57
2022/11/26 06:46:10;;;;;;;4.20;1.25;;;15.30;1.00;;;;;;4842922;29;20426;-57
2022/11/26 06:48:38;;;;;;;8.65;1.77;;;15.30;1.00;;;;;;4842698;29;20046;-57
2022/11/26 06:51:10;;;;;;;4.47;0.95;;;15.30;1.00;;;;;;4826474;29;20046;-57
2022/11/26 06:53:37;;;;;;;6.72;0.90;;;15.30;1.00;;;;;;4842364;29;20046;-58
2022/11/26 06:56:11;;;;;;;4.25;0.70;;;15.30;1.00;;;;;;4842535;29;20565;-57
2022/11/26 06:58:45;;;;;;;5.38;1.10;;;15.20;1.00;;;;;;4842327;29;20583;-57
2022/11/26 07:01:18;;;;;;;3.13;1.63;;;15.20;1.00;;;;;;4842440;29;20042;-58
2022/11/26 07:03:45;;;;;;;3.47;1.00;;;15.20;1.00;;;;;;4824918;29;20414;-57
2022/11/26 07:06:18;;;;;;;7.50;2.22;;;15.30;1.00;;;;;;4842346;29;20097;-57
2022/11/26 07:08:46;;;;;;;5.20;1.08;;;15.30;1.00;;;;;;4840111;29;20045;-58
2022/11/26 07:11:13;;;;;;;4.03;0.90;;;15.20;1.00;;;;;;4837534;29;20120;-57
2022/11/26 07:13:40;;;;;;;7.35;1.55;;;15.30;1.00;;;;;;4839096;29;20073;-58
2022/11/26 07:16:07;;;;;;;2.38;0.98;;;15.30;1.00;;;;;;4842061;29;20037;-57
2022/11/26 07:18:34;;;;;;;3.65;0.70;;;15.30;1.00;;;;;;4841814;29;20045;-58
2022/11/26 07:21:10;;;;;;;7.93;1.48;;;15.30;1.00;;;;;;4842234;29;20136;-58
2022/11/26 07:23:38;;;;;;;3.10;1.02;;;15.20;1.00;;;;;;4841877;29;20075;-58
2022/11/26 07:26:06;;;;;;;4.43;1.33;;;15.20;1.00;;;;;;4842107;29;20050;-58
2022/11/26 07:28:34;;;;;;;4.78;1.17;;;15.20;1.00;;;;;;4841822;29;20069;-58
2022/11/26 07:31:03;;;;;;;3.45;0.85;;;15.20;1.00;;;;;;4841842;29;20062;-58
2022/11/26 07:33:30;;;;;;;6.00;1.73;;;15.20;1.00;;;;;;4841572;29;20066;-58
2022/11/26 07:36:05;;;;;;;3.88;0.90;;;15.20;1.00;;;;;;4841958;29;20082;-58
2022/11/26 07:38:33;;;;;;;9.00;1.17;;;15.20;1.00;;;;;;4841752;29;20050;-58
2022/11/26 07:41:07;;;;;;;6.50;0.80;;;15.20;1.00;;;;;;4841864;29;20482;-58
2022/11/26 07:43:35;;;;;;;3.35;0.73;;;15.20;1.00;;;;;;4838170;29;20355;-58
2022/11/26 07:46:03;;;;;;;6.03;0.80;;;15.20;1.00;;;;;;4835042;29;20100;-58
2022/11/26 07:48:31;;;;;;;8.02;1.98;;;15.20;1.00;;;;;;4836871;29;20049;-58
2022/11/26 07:50:59;;;;;;;9.43;1.75;;;15.20;1.00;;;;;;4834974;29;20077;-55
2022/11/26 07:53:30;;;;;;;5.00;1.50;;;15.20;1.00;;;;;;4828580;29;20056;-58
2022/11/26 07:55:57;;;;;;;9.20;1.77;;;15.20;1.00;;;;;;4835005;29;20092;-54
2022/11/26 07:58:25;;;;;;;7.28;1.55;;;15.20;1.00;;;;;;4832584;29;20045;-54
2022/11/26 08:00:52;;;;;;;6.75;1.58;;;15.20;1.00;;;;;;4841480;29;20042;-58
2022/11/26 08:03:20;;;;;;;6.30;1.33;;;15.20;1.00;;;;;;4841161;29;20057;-58
2022/11/26 08:05:47;;;;;;;5.00;1.25;;;15.20;1.00;;;;;;4841486;29;20558;-58
2022/11/26 08:08:14;;;;;;;15.65;1.75;;;15.20;1.00;;;;;;4841153;29;20042;-57
2022/11/26 08:10:41;;;;;;;4.70;1.00;;;15.20;1.00;;;;;;4841351;29;20128;-57
2022/11/26 08:13:07;;;;;;;13.93;2.35;;;15.20;1.00;;;;;;4841125;29;20052;-56
2022/11/26 08:15:36;;;;;;;14.45;2.17;;;15.20;1.00;;;;;;4841170;29;20046;-55
2022/11/26 08:18:02;;;;;;;14.13;2.53;;;15.20;1.00;;;;;;4841167;29;20054;-58
2022/11/26 08:20:29;;;;;;;12.55;2.65;;;15.20;1.00;;;;;;4841137;29;20129;-58
2022/11/26 08:22:56;;;;;;;11.05;2.53;;;15.20;1.00;;;;;;4839824;29;20049;-58
2022/11/26 08:25:23;;;;;;;10.45;2.80;;;15.20;1.00;;;;;;4823863;29;20407;-58
2022/11/26 08:27:49;;;;;;;26.63;3.83;;;15.20;1.00;;;;;;4840024;29;20554;-58
2022/11/26 08:30:16;;;;;;;8.20;2.20;;;15.20;1.00;;;;;;4840001;29;20142;-58
2022/11/26 08:32:43;;;;;;;11.50;2.70;;;15.20;1.00;;;;;;4839818;29;20050;-58
2022/11/26 08:35:10;;;;;;;13.07;2.22;;;15.20;1.00;;;;;;4839946;29;20050;-58
2022/11/26 08:37:37;;;;;;;9.35;2.40;;;15.20;1.00;;;;;;4840431;29;20403;-58
2022/11/26 08:40:05;;;;;;;9.85;2.78;;;15.20;1.00;;;;;;4841002;29;20585;-58
2022/11/26 08:42:32;;;;;;;8.65;2.25;;;15.20;1.00;;;;;;4829323;29;20046;-58
2022/11/26 08:44:59;;;;;;;6.32;1.85;;;15.20;1.00;;;;;;4825472;29;20064;-57
2022/11/26 08:47:26;;;;;;;11.48;2.95;;;15.20;1.00;;;;;;4833136;29;20671;-57
2022/11/26 08:49:53;;;;;;;14.88;2.88;;;15.10;1.00;;;;;;4840891;29;20471;-58
2022/11/26 08:52:20;;;;;;;7.63;2.08;;;15.20;1.00;;;;;;4840721;29;20128;-57
2022/11/26 08:54:47;;;;;;;11.88;2.67;;;15.10;1.00;;;;;;4840968;29;20102;-57
2022/11/26 08:57:16;;;;;;;8.35;1.70;;;15.10;1.00;;;;;;4841048;29;20129;-58
2022/11/26 08:59:43;;;;;;;7.28;1.63;;;15.10;1.00;;;;;;4840758;29;20070;-57
2022/11/26 09:02:11;;;;;;;10.65;1.77;;;15.10;1.00;;;;;;4840898;29;20146;-58
2022/11/26 09:04:44;;;;;;;5.43;1.83;;;15.10;1.00;;;;;;4831268;29;20551;-58
2022/11/26 09:07:11;;;;;;;14.52;3.95;;;15.10;1.00;;;;;;4826208;29;20043;-57
2022/11/26 09:09:38;;;;;;;21.20;4.75;;;15.10;1.00;;;;;;4828136;29;20495;-60
2022/11/26 09:12:04;;;;;;;20.10;3.88;;;15.10;1.00;;;;;;4830904;29;20080;-58
2022/11/26 09:14:37;;;;;;;28.67;5.30;;;15.00;1.00;;;;;;4830125;29;20050;-58
2022/11/26 09:17:05;;;;;;;19.27;4.57;;;15.00;1.00;;;;;;4830888;29;20571;-58
2022/11/26 09:19:32;;;;;;;21.33;5.45;;;15.00;1.00;;;;;;4828221;29;20053;-58
2022/11/26 09:21:59;;;;;;;17.55;3.80;;;15.00;1.00;;;;;;4826083;29;20034;-57
2022/11/26 09:24:26;;;;;;;20.88;4.95;;;15.00;1.00;;;;;;4825162;29;20413;-57
2022/11/26 09:26:52;;;;;;;17.83;3.42;;;15.00;1.00;;;;;;4829703;29;20041;-58
2022/11/26 09:29:21;;;;;;;18.27;4.22;;;15.00;1.00;;;;;;4836304;29;20054;-59
2022/11/26 09:31:49;;;;;;;15.75;3.75;;;15.00;1.00;;;;;;4836722;29;20526;-58
2022/11/26 09:34:36;;;;;;;17.17;5.15;;;15.00;1.00;;;;;;4832279;29;20051;-59
2022/11/26 09:37:03;;;;;;;16.15;5.07;;;15.00;1.00;;;;;;4834814;29;20051;-57
2022/11/26 09:39:30;;;;;;;15.25;4.05;;;15.00;1.00;;;;;;4835938;29;20125;-58
2022/11/26 09:42:10;;;;;;;18.55;4.35;;;15.00;1.00;;;;;;4837283;29;20129;-58
2022/11/26 09:44:50;;;;;;;17.30;3.95;;;15.00;1.00;;;;;;4835034;29;20112;-56
2022/11/26 09:47:26;;;;;;;19.60;4.07;;;15.00;1.00;;;;;;4822184;29;20564;-56
2022/11/26 09:50:09;;;;;;;7.53;3.80;;;15.00;1.00;;;;;;4832803;29;20578;-57
2022/11/26 09:52:51;;;;;;;17.58;4.88;;;15.00;1.00;;;;;;4825115;29;20054;-57
2022/11/26 09:55:22;;;;;;;26.23;3.40;;;15.00;1.00;;;;;;4831425;29;20139;-56
2022/11/26 09:57:58;;;;;;;16.42;5.35;;;15.00;1.00;;;;;;4831858;29;20042;-56
2022/11/26 10:00:29;;;;;;;24.42;4.68;;;15.00;1.00;;;;;;4833976;29;20141;-56
2022/11/26 10:02:57;;;;;;;15.45;4.03;;;15.00;1.00;;;;;;4824725;29;20046;-56
2022/11/26 10:05:49;;;;;;;17.35;3.70;;;15.00;1.00;;;;;;4825031;29;20047;-56
2022/11/26 10:08:41;;;;;;;25.38;3.83;;;15.00;1.00;;;;;;4824831;29;20126;-56
2022/11/26 10:11:12;;;;;;;21.00;5.00;;;15.00;1.00;;;;;;4824834;29;20574;-57
2022/11/26 10:13:53;;;;;;;18.30;3.70;;;15.00;1.00;;;;;;4824854;29;20054;-56
2022/11/26 10:16:55;;;;;;;19.30;4.60;;;15.00;1.00;;;;;;4824959;29;20455;-56
2022/11/26 10:19:53;;;;;;;22.20;7.20;;;15.00;1.00;;;;;;4803609;29;20525;-55
2022/11/26 10:22:28;;;;;;;19.77;3.88;;;15.00;1.00;;;;;;4819921;29;20046;-54
2022/11/26 10:24:58;;;;;;;24.60;6.13;;;15.00;1.00;;;;;;4834932;29;20057;-55
2022/11/26 10:27:31;;;;;;;14.02;4.25;;;15.00;1.00;;;;;;4832332;29;20069;-55
2022/11/26 10:30:02;;;;;;;16.25;3.97;;;15.00;1.00;;;;;;4823990;29;20046;-54
2022/11/26 10:32:37;;;;;;;14.50;3.97;;;15.00;1.00;;;;;;4828872;29;20498;-54
2022/11/26 10:35:05;;;;;;;17.35;4.72;;;15.00;1.00;;;;;;4826097;29;20042;-55
2022/11/26 10:37:32;;;;;;;18.95;4.57;;;15.00;1.00;;;;;;4823946;29;20299;-55
2022/11/26 10:40:17;;;;;;;18.67;4.32;;;15.00;1.00;;;;;;4823942;29;20396;-55
2022/11/26 10:42:54;;;;;;;19.33;4.72;;;15.00;1.00;;;;;;4824054;29;20046;-55
2022/11/26 10:45:25;;;;;;;25.35;5.00;;;15.00;1.00;;;;;;4824538;29;20107;-50
2022/11/26 10:47:51;;;;;;;16.17;4.55;;;15.00;1.00;;;;;;4824493;29;20042;-54
2022/11/26 10:50:24;;;;;;;14.80;4.32;;;15.00;1.00;;;;;;4824273;29;20487;-54
2022/11/26 10:53:21;;;;;;;13.85;4.32;;;15.00;1.00;;;;;;4824056;29;20068;-56
2022/11/26 10:55:49;;;;;;;22.60;5.43;;;15.00;1.00;;;;;;4824418;29;20069;-56
2022/11/26 10:58:19;;;;;;;23.00;5.40;;;15.00;1.00;;;;;;4823927;29;20055;-56
2022/11/26 11:00:49;;;;;;;21.05;5.18;;;15.00;1.00;;;;;;4824279;29;20085;-53
2022/11/26 11:03:22;;;;;;;31.63;6.15;;;15.00;1.00;;;;;;4823836;29;20085;-55
2022/11/26 11:06:18;;;;;;;25.75;4.13;;;15.00;1.00;;;;;;4829358;29;20065;-56
2022/11/26 11:08:46;;;;;;;20.15;5.40;;;15.00;1.00;;;;;;4828263;29;20053;-58
2022/11/26 11:11:26;;;;;;;33.30;5.60;;;15.00;1.00;;;;;;4831230;29;20054;-55
2022/11/26 11:13:53;;;;;;;19.83;5.03;;;15.00;1.00;;;;;;4823863;29;20119;-55
2022/11/26 11:16:37;;;;;;;18.60;5.13;;;15.00;1.00;;;;;;4833152;29;20045;-56
2022/11/26 11:19:17;;;;;;;17.15;5.07;;;15.00;1.00;;;;;;4823780;29;20053;-55
2022/11/26 11:21:44;;;;;;;23.52;6.88;;;15.00;1.00;;;;;;4819512;29;20074;-57
2022/11/26 11:24:15;;;;;;;22.73;4.63;;;15.00;1.00;;;;;;4812449;29;20038;-57
2022/11/26 11:26:45;;;;;;;21.17;5.30;;;14.90;1.00;;;;;;4830420;29;20051;-58
2022/11/26 11:29:36;;;;;;;29.42;6.50;;;14.90;1.00;;;;;;4838812;29;20142;-56
2022/11/26 11:32:05;;;;;;;16.13;4.40;;;14.90;1.00;;;;;;4803233;29;20102;-57
2022/11/26 11:34:38;;;;;;;16.75;5.70;;;14.90;1.00;;;;;;4811795;29;20425;-54
2022/11/26 11:37:12;;;;;;;20.83;5.13;;;14.90;1.00;;;;;;4825223;29;20053;-57
2022/11/26 11:39:41;;;;;;;19.13;4.82;;;14.90;1.00;;;;;;4833753;29;20473;-57
2022/11/26 11:42:27;;;;;;;23.35;5.90;;;14.90;1.00;;;;;;4823944;29;20380;-59
2022/11/26 11:44:55;;;;;;;20.70;5.95;;;14.90;1.00;;;;;;4827943;29;20128;-59
2022/11/26 11:47:39;;;;;;;21.42;5.22;;;14.90;1.00;;;;;;4831963;29;20046;-59
2022/11/26 11:50:28;;;;;;;21.77;4.22;;;14.90;1.00;;;;;;4830156;29;20127;-59
2022/11/26 11:53:25;;;;;;;16.23;4.60;;;14.90;1.00;;;;;;4823611;29;20038;-59
2022/11/26 11:56:16;;;;;;;23.75;5.22;;;14.80;1.00;;;;;;4812335;29;20590;-59
2022/11/26 11:59:11;;;;;;;21.20;5.43;;;14.80;1.00;;;;;;4826493;29;20566;-58
2022/11/26 12:02:03;;;;;;;14.77;3.75;;;14.80;1.00;;;;;;4824092;29;20046;-58
2022/11/26 12:05:01;;;;;;;18.45;5.53;;;14.80;1.00;;;;;;4828310;29;20073;-58
2022/11/26 12:07:46;;;;;;;20.73;4.45;;;14.80;1.00;;;;;;4827171;29;20623;-58
2022/11/26 12:10:38;;;;;;;22.33;4.20;;;14.80;1.00;;;;;;4812621;29;20058;-58
2022/11/26 12:13:08;;;;;;;19.70;5.07;;;14.80;1.00;;;;;;4824465;29;20122;-56
2022/11/26 12:16:04;;;;;;;12.15;4.75;;;14.80;1.00;;;;;;4823169;29;20057;-56
2022/11/26 12:18:55;;;;;;;14.85;3.63;;;14.80;1.00;;;;;;4804600;29;20059;-58
2022/11/26 12:21:31;;;;;;;14.95;4.22;;;14.80;1.00;;;;;;4804876;29;20078;-59
2022/11/26 12:24:27;;;;;;;14.45;4.70;;;14.80;1.00;;;;;;4804733;29;20058;-58
2022/11/26 12:27:02;;;;;;;11.63;3.58;;;14.80;1.00;;;;;;4804823;29;20047;-58
2022/11/26 12:29:39;;;;;;;18.02;3.92;;;14.80;1.00;;;;;;4826701;29;20061;-58
2022/11/26 12:32:12;;;;;;;6.78;2.88;;;14.80;1.00;;;;;;4833485;29;20106;-58
2022/11/26 12:34:42;;;;;;;12.45;3.38;;;14.80;1.00;;;;;;4826655;29;20053;-58
2022/11/26 12:37:34;;;;;;;16.83;4.03;;;14.80;1.00;;;;;;4824932;29;20050;-58
2022/11/26 12:40:20;;;;;;;14.10;3.92;;;14.80;1.00;;;;;;4833299;29;20106;-58
2022/11/26 12:42:56;;;;;;;15.45;3.13;;;14.90;1.00;;;;;;4830928;29;20079;-58
2022/11/26 12:45:53;;;;;;;9.70;3.58;;;14.90;1.00;;;;;;4822746;29;20042;-58
2022/11/26 12:48:42;;;;;;;19.70;3.22;;;14.90;1.00;;;;;;4826661;29;20506;-59
2022/11/26 12:51:30;;;;;;;10.23;3.30;;;14.90;1.00;;;;;;4831118;29;20126;-60
2022/11/26 12:54:12;;;;;;;17.70;3.45;;;14.90;1.00;;;;;;4831277;29;20046;-60
2022/11/26 12:56:41;;;;;;;14.68;3.97;;;14.90;1.00;;;;;;4831755;29;20518;-59
2022/11/26 12:59:31;;;;;;;14.98;4.05;;;14.90;1.00;;;;;;4832310;29;20526;-59
2022/11/26 13:02:27;;;;;;;15.82;3.17;;;14.90;1.00;;;;;;4833391;29;20101;-59
2022/11/26 13:04:55;;;;;;;11.60;3.33;;;14.90;1.00;;;;;;4843786;29;20120;-58
2022/11/26 13:07:46;;;;;;;15.23;4.53;;;14.90;1.00;;;;;;4833791;29;20050;-59
2022/11/26 13:10:27;;;;;;;12.10;2.47;;;14.90;1.00;;;;;;4838510;29;20679;-59
2022/11/26 13:13:31;;;;;;;13.35;3.90;;;14.90;1.00;;;;;;4833414;29;20137;-59
2022/11/26 13:16:23;;;;;;;13.75;3.40;;;14.90;1.00;;;;;;4843852;29;20132;-59
2022/11/26 13:18:54;;;;;;;16.70;3.20;;;14.90;1.00;;;;;;4844131;29;20050;-59